Nisyros — ZDKC2 — position and weather

sailwx.info

Track history (hours):
 
Tides and Currents Weather Stations Pressure Air Temp Water Temp Dewpoint Dewpoint Depression Visibility Wind Speed Wind Dir Waves Ship Positions

Nisyros

Last reported at 2018-May-28 01:27 UTC. Time now 2018-May-28 01:39 UTC.
Position N 36°08' W 005°18'.

Length 102 m; draft 7.2 m.

Type: Tanker. MMSI: 236590000.

Date/timePositionNaut miles runAvg speedWind from/ knotsBaromVisibWave heightAir tempDewpointWater temp
2018-May-28 01:27N 36°08' W 005°18'0 0.0
2018-May-28 00:57N 36°08' W 005°18'0 0.3
2018-May-28 00:30N 36°08' W 005°18'0 0.2
2018-May-27 23:47N 36°08' W 005°18'2 5.9
2018-May-27 23:29N 36°06' W 005°19'4 9.3
2018-May-27 23:00N 36°02' W 005°22'510.9
2018-May-27 22:30N 35°58' W 005°26'5 0.5
2018-May-27 12:22N 35°54' W 005°30'3 7.8
2018-May-27 12:00N 35°56' W 005°30'4 7.8
2018-May-27 11:30N 35°60' W 005°27'4 7.1
2018-May-27 11:00N 36°02' W 005°24'4 8.5
2018-May-27 10:30N 36°06' W 005°22'1 0.2
2018-May-27 04:17N 36°07' W 005°22'1 1.9
2018-May-27 04:00N 36°08' W 005°22'1 2.5
2018-May-27 03:27N 36°09' W 005°22'0 0.0
2018-May-27 02:51N 36°09' W 005°22'0 0.0
2018-May-27 02:27N 36°09' W 005°22'0 0.0
2018-May-27 00:33N 36°09' W 005°22'0 0.0
2018-May-27 00:21N 36°09' W 005°22'0 0.0
2018-May-27 00:00N 36°09' W 005°22'0 0.1
2018-May-26 23:30N 36°09' W 005°22'0 0.1
2018-May-26 22:51N 36°09' W 005°22'0 0.0
2018-May-26 22:24N 36°09' W 005°22'0 0.1
2018-May-26 22:00N 36°09' W 005°22'0 0.1
2018-May-26 21:21N 36°09' W 005°22'0 0.1
2018-May-26 20:03N 36°09' W 005°22'0 0.0
2018-May-26 19:51N 36°09' W 005°22'0 0.1
2018-May-26 19:09N 36°09' W 005°22'1 3.7
2018-May-26 18:56N 36°09' W 005°23'2 0.3
2018-May-26 12:14N 36°07' W 005°22'1 2.2
2018-May-26 12:00N 36°07' W 005°22'2 0.2
2018-May-26 04:31N 36°09' W 005°22'0 0.2
2018-May-26 04:19N 36°09' W 005°22'1 2.6
2018-May-26 03:58N 36°08' W 005°22'1 0.1
2018-May-25 21:35N 36°08' W 005°22'0 0.3
2018-May-25 21:30N 36°08' W 005°22'1 0.2
2018-May-25 13:39N 36°07' W 005°21'1 3.7
2018-May-25 13:30N 36°07' W 005°21'2 0.3
2018-May-25 05:29N 36°09' W 005°22'0 0.0
2018-May-25 04:59N 36°09' W 005°22'0 0.1
2018-May-25 04:29N 36°09' W 005°22'0 0.0
2018-May-25 01:38N 36°09' W 005°22'1 4.6
2018-May-25 01:29N 36°09' W 005°22'1 0.0
2018-May-24 06:35N 36°09' W 005°22'0 0.0
2018-May-24 06:29N 36°09' W 005°22'1 1.3
2018-May-24 05:29N 36°08' W 005°22'1 0.2
2018-May-24 02:48N 36°07' W 005°22'0 1.3
2018-May-24 02:30N 36°08' W 005°22'1 0.9
2018-May-24 00:51N 36°09' W 005°22'0 0.1
2018-May-24 00:27N 36°09' W 005°22'0 0.1
2018-May-23 23:57N 36°09' W 005°22'1 1.4
2018-May-23 23:30N 36°09' W 005°22'0 0.0
2018-May-23 15:34N 36°09' W 005°22'0 0.6
2018-May-23 15:29N 36°09' W 005°22'2 0.3
2018-May-23 09:15N 36°07' W 005°21'1 3.2
2018-May-23 08:55N 36°08' W 005°22'2 4.0
2018-May-23 08:29N 36°09' W 005°22'0 0.0
2018-May-23 06:12N 36°09' W 005°22'2 2.1
2018-May-23 05:20N 36°08' W 005°22'0 0.0
2018-May-22 20:59N 36°07' W 005°22'2 3.5
2018-May-22 20:24N 36°06' W 005°21'2 6.1
2018-May-22 20:00N 36°07' W 005°18'0 0.5
2018-May-22 19:29N 36°07' W 005°18'0 0.0
2018-May-22 18:59N 36°07' W 005°18'0 0.1
2018-May-22 18:29N 36°07' W 005°18'0 0.0
2018-May-22 17:59N 36°07' W 005°18'0 0.1
2018-May-22 17:29N 36°07' W 005°18'0 0.1
2018-May-22 16:59N 36°07' W 005°18'0 0.2
2018-May-22 16:29N 36°07' W 005°19'0 0.1
2018-May-22 15:59N 36°07' W 005°18'0 0.1
2018-May-22 15:29N 36°07' W 005°18'0 0.0
2018-May-22 14:59N 36°07' W 005°18'0 0.0
2018-May-22 14:29N 36°07' W 005°18'0 0.1
2018-May-22 13:53N 36°07' W 005°18'15 0.5
2018-May-21 06:31N 35°56' W 005°31'0 9.6
2018-May-21 06:30N 35°56' W 005°31'4 8.8
2018-May-21 06:00N 35°60' W 005°27'4 8.8
2018-May-21 05:30N 36°03' W 005°24'5 9.2
2018-May-21 05:00N 36°08' W 005°23'0 0.0
2018-May-20 15:00N 36°08' W 005°23'1 2.9
2018-May-20 14:30N 36°09' W 005°22'0 0.1
2018-May-20 13:58N 36°09' W 005°22'0 0.0
2018-May-20 13:25N 36°09' W 005°22'0 0.0
2018-May-20 12:55N 36°09' W 005°22'0 0.0
2018-May-20 12:28N 36°09' W 005°22'0 0.0
2018-May-20 11:55N 36°09' W 005°22'0 0.1
2018-May-20 11:25N 36°09' W 005°22'0 0.0
2018-May-20 10:55N 36°09' W 005°22'0 0.0
2018-May-20 10:25N 36°09' W 005°22'0 0.0
2018-May-20 09:55N 36°09' W 005°22'0 0.0
2018-May-20 09:19N 36°09' W 005°22'0 0.0
2018-May-20 07:01N 36°09' W 005°22'0 0.2
2018-May-20 06:49N 36°09' W 005°22'0 0.1
2018-May-20 06:13N 36°09' W 005°22'0 0.1
2018-May-20 05:55N 36°09' W 005°22'0 0.0
2018-May-20 05:19N 36°09' W 005°22'0 0.1
2018-May-20 03:49N 36°09' W 005°22'0 0.1
2018-May-20 02:27N 36°09' W 005°22'0 0.1
2018-May-20 01:57N 36°09' W 005°22'0 0.1
2018-May-20 01:27N 36°09' W 005°22'0 0.0
2018-May-20 00:51N 36°09' W 005°22'0 0.2
2018-May-20 00:27N 36°09' W 005°22'0 0.1
2018-May-19 23:09N 36°09' W 005°22'0 0.0
2018-May-19 21:27N 36°09' W 005°22'0 0.2
2018-May-19 21:00N 36°09' W 005°22'0 0.6
2018-May-19 20:22N 36°09' W 005°23'4 0.3
2018-May-19 06:32N 36°05' W 005°21'1 8.1
2018-May-19 06:27N 36°06' W 005°20'3 5.7
2018-May-19 06:00N 36°08' W 005°18'0 0.1
2018-May-19 05:23N 36°08' W 005°18'0 0.0
2018-May-19 04:59N 36°08' W 005°18'0 0.1
2018-May-19 04:29N 36°08' W 005°18'0 0.0
2018-May-19 03:59N 36°08' W 005°18'0 0.1
2018-May-19 03:29N 36°08' W 005°18'0 0.0
2018-May-19 02:59N 36°08' W 005°18'0 0.0
2018-May-19 02:29N 36°08' W 005°18'0 0.0
2018-May-19 01:59N 36°08' W 005°18'0 0.0
2018-May-19 01:29N 36°08' W 005°18'0 0.0
2018-May-19 00:59N 36°08' W 005°18'0 0.0
2018-May-19 00:29N 36°08' W 005°18'0 0.0
2018-May-18 21:20N 36°08' W 005°18'0 0.0
2018-May-18 20:59N 36°08' W 005°18'0 0.0
2018-May-18 20:29N 36°08' W 005°18'0 0.0
2018-May-18 19:59N 36°08' W 005°18'0 0.0
2018-May-18 19:29N 36°08' W 005°18'0 0.2
2018-May-18 18:44N 36°08' W 005°18'0 0.0
2018-May-18 18:26N 36°08' W 005°18'0 0.0
2018-May-18 17:53N 36°08' W 005°18'0 0.2
2018-May-18 17:23N 36°08' W 005°18'0 0.1
2018-May-18 16:56N 36°08' W 005°19'0 0.0
2018-May-18 16:05N 36°08' W 005°19'0 0.1
2018-May-18 15:59N 36°08' W 005°19'0 0.0
2018-May-18 15:29N 36°08' W 005°19'0 0.0
2018-May-18 14:59N 36°08' W 005°19'0 0.1
2018-May-18 14:29N 36°08' W 005°19'0 0.0
2018-May-18 13:35N 36°08' W 005°18'0 0.0
2018-May-18 13:29N 36°08' W 005°18'0 0.0
2018-May-18 12:47N 36°08' W 005°18'0 0.0
2018-May-18 12:20N 36°08' W 005°18'0 0.0
2018-May-18 11:59N 36°08' W 005°18'0 0.0
2018-May-18 11:29N 36°08' W 005°18'0 0.0
2018-May-18 10:38N 36°08' W 005°18'0 0.0
2018-May-18 10:29N 36°08' W 005°18'0 0.2
2018-May-18 10:00N 36°08' W 005°18'3 5.5
2018-May-18 09:30N 36°05' W 005°21'2 0.5
2018-May-18 05:48N 36°07' W 005°22'0 0.1
2018-May-18 02:25N 36°07' W 005°22'1 3.4
2018-May-18 02:00N 36°08' W 005°22'  
Track history (hours):
 
Tides and Currents Weather Stations Pressure Air Temp Water Temp Dewpoint Dewpoint Depression Visibility Wind Speed Wind Dir Waves Ship Positions

Nisyros

Last reported at 2018-May-28 01:27 UTC. Time now 2018-May-28 01:39 UTC.
Position N 36°08' W 005°18'.

Length 102 m; draft 7.2 m.

Type: Tanker. MMSI: 236590000.

Date/timePositionNaut miles runAvg speedWind from/ knotsBaromVisibWave heightAir tempDewpointWater temp
2018-May-28 01:27N 36°08' W 005°18'0 0.0
2018-May-28 00:57N 36°08' W 005°18'0 0.3
2018-May-28 00:30N 36°08' W 005°18'0 0.2
2018-May-27 23:47N 36°08' W 005°18'2 5.9
2018-May-27 23:29N 36°06' W 005°19'4 9.3
2018-May-27 23:00N 36°02' W 005°22'510.9
2018-May-27 22:30N 35°58' W 005°26'5 0.5
2018-May-27 12:22N 35°54' W 005°30'3 7.8
2018-May-27 12:00N 35°56' W 005°30'4 7.8
2018-May-27 11:30N 35°60' W 005°27'4 7.1
2018-May-27 11:00N 36°02' W 005°24'4 8.5
2018-May-27 10:30N 36°06' W 005°22'1 0.2
2018-May-27 04:17N 36°07' W 005°22'1 1.9
2018-May-27 04:00N 36°08' W 005°22'1 2.5
2018-May-27 03:27N 36°09' W 005°22'0 0.0
2018-May-27 02:51N 36°09' W 005°22'0 0.0
2018-May-27 02:27N 36°09' W 005°22'0 0.0
2018-May-27 00:33N 36°09' W 005°22'0 0.0
2018-May-27 00:21N 36°09' W 005°22'0 0.0
2018-May-27 00:00N 36°09' W 005°22'0 0.1
2018-May-26 23:30N 36°09' W 005°22'0 0.1
2018-May-26 22:51N 36°09' W 005°22'0 0.0
2018-May-26 22:24N 36°09' W 005°22'0 0.1
2018-May-26 22:00N 36°09' W 005°22'0 0.1
2018-May-26 21:21N 36°09' W 005°22'0 0.1
2018-May-26 20:03N 36°09' W 005°22'0 0.0
2018-May-26 19:51N 36°09' W 005°22'0 0.1
2018-May-26 19:09N 36°09' W 005°22'1 3.7
2018-May-26 18:56N 36°09' W 005°23'2 0.3
2018-May-26 12:14N 36°07' W 005°22'1 2.2
2018-May-26 12:00N 36°07' W 005°22'2 0.2
2018-May-26 04:31N 36°09' W 005°22'0 0.2
2018-May-26 04:19N 36°09' W 005°22'1 2.6
2018-May-26 03:58N 36°08' W 005°22'1 0.1
2018-May-25 21:35N 36°08' W 005°22'0 0.3
2018-May-25 21:30N 36°08' W 005°22'1 0.2
2018-May-25 13:39N 36°07' W 005°21'1 3.7
2018-May-25 13:30N 36°07' W 005°21'2 0.3
2018-May-25 05:29N 36°09' W 005°22'0 0.0
2018-May-25 04:59N 36°09' W 005°22'0 0.1
2018-May-25 04:29N 36°09' W 005°22'0 0.0
2018-May-25 01:38N 36°09' W 005°22'1 4.6
2018-May-25 01:29N 36°09' W 005°22'1 0.0
2018-May-24 06:35N 36°09' W 005°22'0 0.0
2018-May-24 06:29N 36°09' W 005°22'1 1.3
2018-May-24 05:29N 36°08' W 005°22'1 0.2
2018-May-24 02:48N 36°07' W 005°22'0 1.3
2018-May-24 02:30N 36°08' W 005°22'1 0.9
2018-May-24 00:51N 36°09' W 005°22'0 0.1
2018-May-24 00:27N 36°09' W 005°22'0 0.1
2018-May-23 23:57N 36°09' W 005°22'1 1.4
2018-May-23 23:30N 36°09' W 005°22'0 0.0
2018-May-23 15:34N 36°09' W 005°22'0 0.6
2018-May-23 15:29N 36°09' W 005°22'2 0.3
2018-May-23 09:15N 36°07' W 005°21'1 3.2
2018-May-23 08:55N 36°08' W 005°22'2 4.0
2018-May-23 08:29N 36°09' W 005°22'0 0.0
2018-May-23 06:12N 36°09' W 005°22'2 2.1
2018-May-23 05:20N 36°08' W 005°22'0 0.0
2018-May-22 20:59N 36°07' W 005°22'2 3.5
2018-May-22 20:24N 36°06' W 005°21'2 6.1
2018-May-22 20:00N 36°07' W 005°18'0 0.5
2018-May-22 19:29N 36°07' W 005°18'0 0.0
2018-May-22 18:59N 36°07' W 005°18'0 0.1
2018-May-22 18:29N 36°07' W 005°18'0 0.0
2018-May-22 17:59N 36°07' W 005°18'0 0.1
2018-May-22 17:29N 36°07' W 005°18'0 0.1
2018-May-22 16:59N 36°07' W 005°18'0 0.2
2018-May-22 16:29N 36°07' W 005°19'0 0.1
2018-May-22 15:59N 36°07' W 005°18'0 0.1
2018-May-22 15:29N 36°07' W 005°18'0 0.0
2018-May-22 14:59N 36°07' W 005°18'0 0.0
2018-May-22 14:29N 36°07' W 005°18'0 0.1
2018-May-22 13:53N 36°07' W 005°18'15 0.5
2018-May-21 06:31N 35°56' W 005°31'0 9.6
2018-May-21 06:30N 35°56' W 005°31'4 8.8
2018-May-21 06:00N 35°60' W 005°27'4 8.8
2018-May-21 05:30N 36°03' W 005°24'5 9.2
2018-May-21 05:00N 36°08' W 005°23'0 0.0
2018-May-20 15:00N 36°08' W 005°23'1 2.9
2018-May-20 14:30N 36°09' W 005°22'0 0.1
2018-May-20 13:58N 36°09' W 005°22'0 0.0
2018-May-20 13:25N 36°09' W 005°22'0 0.0
2018-May-20 12:55N 36°09' W 005°22'0 0.0
2018-May-20 12:28N 36°09' W 005°22'0 0.0
2018-May-20 11:55N 36°09' W 005°22'0 0.1
2018-May-20 11:25N 36°09' W 005°22'0 0.0
2018-May-20 10:55N 36°09' W 005°22'0 0.0
2018-May-20 10:25N 36°09' W 005°22'0 0.0
2018-May-20 09:55N 36°09' W 005°22'0 0.0
2018-May-20 09:19N 36°09' W 005°22'0 0.0
2018-May-20 07:01N 36°09' W 005°22'0 0.2
2018-May-20 06:49N 36°09' W 005°22'0 0.1
2018-May-20 06:13N 36°09' W 005°22'0 0.1
2018-May-20 05:55N 36°09' W 005°22'0 0.0
2018-May-20 05:19N 36°09' W 005°22'0 0.1
2018-May-20 03:49N 36°09' W 005°22'0 0.1
2018-May-20 02:27N 36°09' W 005°22'0 0.1
2018-May-20 01:57N 36°09' W 005°22'0 0.1
2018-May-20 01:27N 36°09' W 005°22'0 0.0
2018-May-20 00:51N 36°09' W 005°22'0 0.2
2018-May-20 00:27N 36°09' W 005°22'0 0.1
2018-May-19 23:09N 36°09' W 005°22'0 0.0
2018-May-19 21:27N 36°09' W 005°22'0 0.2
2018-May-19 21:00N 36°09' W 005°22'0 0.6
2018-May-19 20:22N 36°09' W 005°23'4 0.3
2018-May-19 06:32N 36°05' W 005°21'1 8.1
2018-May-19 06:27N 36°06' W 005°20'3 5.7
2018-May-19 06:00N 36°08' W 005°18'0 0.1
2018-May-19 05:23N 36°08' W 005°18'0 0.0
2018-May-19 04:59N 36°08' W 005°18'0 0.1
2018-May-19 04:29N 36°08' W 005°18'0 0.0
2018-May-19 03:59N 36°08' W 005°18'0 0.1
2018-May-19 03:29N 36°08' W 005°18'0 0.0
2018-May-19 02:59N 36°08' W 005°18'0 0.0
2018-May-19 02:29N 36°08' W 005°18'0 0.0
2018-May-19 01:59N 36°08' W 005°18'0 0.0
2018-May-19 01:29N 36°08' W 005°18'0 0.0
2018-May-19 00:59N 36°08' W 005°18'0 0.0
2018-May-19 00:29N 36°08' W 005°18'0 0.0
2018-May-18 21:20N 36°08' W 005°18'0 0.0
2018-May-18 20:59N 36°08' W 005°18'0 0.0
2018-May-18 20:29N 36°08' W 005°18'0 0.0
2018-May-18 19:59N 36°08' W 005°18'0 0.0
2018-May-18 19:29N 36°08' W 005°18'0 0.2
2018-May-18 18:44N 36°08' W 005°18'0 0.0
2018-May-18 18:26N 36°08' W 005°18'0 0.0
2018-May-18 17:53N 36°08' W 005°18'0 0.2
2018-May-18 17:23N 36°08' W 005°18'0 0.1
2018-May-18 16:56N 36°08' W 005°19'0 0.0
2018-May-18 16:05N 36°08' W 005°19'0 0.1
2018-May-18 15:59N 36°08' W 005°19'0 0.0
2018-May-18 15:29N 36°08' W 005°19'0 0.0
2018-May-18 14:59N 36°08' W 005°19'0 0.1
2018-May-18 14:29N 36°08' W 005°19'0 0.0
2018-May-18 13:35N 36°08' W 005°18'0 0.0
2018-May-18 13:29N 36°08' W 005°18'0 0.0
2018-May-18 12:47N 36°08' W 005°18'0 0.0
2018-May-18 12:20N 36°08' W 005°18'0 0.0
2018-May-18 11:59N 36°08' W 005°18'0 0.0
2018-May-18 11:29N 36°08' W 005°18'0 0.0
2018-May-18 10:38N 36°08' W 005°18'0 0.0
2018-May-18 10:29N 36°08' W 005°18'0 0.2
2018-May-18 10:00N 36°08' W 005°18'3 5.5
2018-May-18 09:30N 36°05' W 005°21'2 0.5
2018-May-18 05:48N 36°07' W 005°22'0 0.1
2018-May-18 02:25N 36°07' W 005°22'1 3.4
2018-May-18 02:00N 36°08' W 005°22'  

Dump ship's entire track history